<?xml version="1.0" encoding="UTF-8" standalone="no" ?>
<gpx xmlns="http://www.topografix.com/GPX/1/1" xmlns:xsi="http://www.w3.org/2001/XMLSchema-instance" xsi:schemaLocation="http://www.topografix.com/GPX/1/1 http://www.topografix.com/GPX/1/1/gpx.xsd" version="1.1" creator="VisuGPX - https://www.visugpx.com">
  <metadata>
    <name>Rando Fontainebleau- de Bourron à Morêt</name>
    <desc><![CDATA[Rando hivernale de la gare de Bourron-Marlotte à celle de Morêt-sur-Loing   16km
Belle balade par le sentier Denecourt-colinet n°11

A lire sur : [url]hettp://trekkingzone.fr[/url]]]></desc>
  </metadata>
  <trk>
    <name><![CDATA[12446102-Rando Fontainebleau]]></name>
    <trkseg>
      <trkpt lat="48.33317" lon="2.69223">
        <ele>74</ele>
        <time>2021-01-25T07:59:45Z</time>
      </trkpt>
      <trkpt lat="48.33381" lon="2.69432">
        <ele>72</ele>
        <time>2021-01-25T08:03:09Z</time>
      </trkpt>
      <trkpt lat="48.33702" lon="2.69672">
        <ele>75</ele>
        <time>2021-01-25T08:11:07Z</time>
      </trkpt>
      <trkpt lat="48.33787" lon="2.69587">
        <ele>76</ele>
        <time>2021-01-25T08:13:24Z</time>
      </trkpt>
      <trkpt lat="48.33953" lon="2.69562">
        <ele>76</ele>
        <time>2021-01-25T08:17:06Z</time>
      </trkpt>
      <trkpt lat="48.34004" lon="2.69851">
        <ele>74</ele>
        <time>2021-01-25T08:21:32Z</time>
      </trkpt>
      <trkpt lat="48.34279" lon="2.69734">
        <ele>75</ele>
        <time>2021-01-25T08:27:53Z</time>
      </trkpt>
      <trkpt lat="48.34554" lon="2.69955">
        <ele>85</ele>
        <time>2021-01-25T08:34:49Z</time>
      </trkpt>
      <trkpt lat="48.34659" lon="2.70108">
        <ele>91</ele>
        <time>2021-01-25T08:38:04Z</time>
      </trkpt>
      <trkpt lat="48.3474" lon="2.70215">
        <ele>103</ele>
        <time>2021-01-25T08:40:28Z</time>
      </trkpt>
      <trkpt lat="48.34822" lon="2.70292">
        <ele>115</ele>
        <time>2021-01-25T08:42:37Z</time>
      </trkpt>
      <trkpt lat="48.34988" lon="2.70302">
        <ele>120</ele>
        <time>2021-01-25T08:46:19Z</time>
      </trkpt>
      <trkpt lat="48.34998" lon="2.70379">
        <ele>124</ele>
        <time>2021-01-25T08:47:28Z</time>
      </trkpt>
      <trkpt lat="48.35337" lon="2.70659">
        <ele>139</ele>
        <time>2021-01-25T08:56:04Z</time>
      </trkpt>
      <trkpt lat="48.35368" lon="2.71428">
        <ele>108</ele>
        <time>2021-01-25T09:07:27Z</time>
      </trkpt>
      <trkpt lat="48.3544" lon="2.71449">
        <ele>112</ele>
        <time>2021-01-25T09:09:05Z</time>
      </trkpt>
      <trkpt lat="48.35558" lon="2.71433">
        <ele>119</ele>
        <time>2021-01-25T09:11:43Z</time>
      </trkpt>
      <trkpt lat="48.3567" lon="2.71214">
        <ele>129</ele>
        <time>2021-01-25T09:15:48Z</time>
      </trkpt>
      <trkpt lat="48.35718" lon="2.71112">
        <ele>136</ele>
        <time>2021-01-25T09:17:39Z</time>
      </trkpt>
      <trkpt lat="48.35853" lon="2.71107">
        <ele>130</ele>
        <time>2021-01-25T09:20:39Z</time>
      </trkpt>
      <trkpt lat="48.35945" lon="2.71151">
        <ele>124</ele>
        <time>2021-01-25T09:22:48Z</time>
      </trkpt>
      <trkpt lat="48.35909" lon="2.7131">
        <ele>120</ele>
        <time>2021-01-25T09:25:17Z</time>
      </trkpt>
      <trkpt lat="48.35907" lon="2.71523">
        <ele>116</ele>
        <time>2021-01-25T09:28:26Z</time>
      </trkpt>
      <trkpt lat="48.3583" lon="2.71603">
        <ele>119</ele>
        <time>2021-01-25T09:30:31Z</time>
      </trkpt>
      <trkpt lat="48.35796" lon="2.71624">
        <ele>115</ele>
        <time>2021-01-25T09:31:20Z</time>
      </trkpt>
      <trkpt lat="48.3583" lon="2.71696">
        <ele>113</ele>
        <time>2021-01-25T09:32:38Z</time>
      </trkpt>
      <trkpt lat="48.35756" lon="2.71844">
        <ele>110</ele>
        <time>2021-01-25T09:35:23Z</time>
      </trkpt>
      <trkpt lat="48.35712" lon="2.71834">
        <ele>106</ele>
        <time>2021-01-25T09:36:22Z</time>
      </trkpt>
      <trkpt lat="48.35641" lon="2.71953">
        <ele>107</ele>
        <time>2021-01-25T09:38:44Z</time>
      </trkpt>
      <trkpt lat="48.35621" lon="2.7205">
        <ele>113</ele>
        <time>2021-01-25T09:40:14Z</time>
      </trkpt>
      <trkpt lat="48.35705" lon="2.72097">
        <ele>122</ele>
        <time>2021-01-25T09:42:13Z</time>
      </trkpt>
      <trkpt lat="48.35756" lon="2.72166">
        <ele>127</ele>
        <time>2021-01-25T09:43:45Z</time>
      </trkpt>
      <trkpt lat="48.35735" lon="2.72238">
        <ele>123</ele>
        <time>2021-01-25T09:44:55Z</time>
      </trkpt>
      <trkpt lat="48.35687" lon="2.72329">
        <ele>112</ele>
        <time>2021-01-25T09:46:38Z</time>
      </trkpt>
      <trkpt lat="48.3574" lon="2.72368">
        <ele>112</ele>
        <time>2021-01-25T09:47:56Z</time>
      </trkpt>
      <trkpt lat="48.35682" lon="2.72574">
        <ele>106</ele>
        <time>2021-01-25T09:51:15Z</time>
      </trkpt>
      <trkpt lat="48.35576" lon="2.72639">
        <ele>111</ele>
        <time>2021-01-25T09:53:48Z</time>
      </trkpt>
      <trkpt lat="48.35511" lon="2.72704">
        <ele>103</ele>
        <time>2021-01-25T09:55:32Z</time>
      </trkpt>
      <trkpt lat="48.35499" lon="2.72877">
        <ele>100</ele>
        <time>2021-01-25T09:58:06Z</time>
      </trkpt>
      <trkpt lat="48.35471" lon="2.72931">
        <ele>99</ele>
        <time>2021-01-25T09:59:07Z</time>
      </trkpt>
      <trkpt lat="48.35375" lon="2.73032">
        <ele>102</ele>
        <time>2021-01-25T10:01:43Z</time>
      </trkpt>
      <trkpt lat="48.35332" lon="2.73206">
        <ele>114</ele>
        <time>2021-01-25T10:04:28Z</time>
      </trkpt>
      <trkpt lat="48.35291" lon="2.73267">
        <ele>115</ele>
        <time>2021-01-25T10:05:45Z</time>
      </trkpt>
      <trkpt lat="48.3528" lon="2.73406">
        <ele>124</ele>
        <time>2021-01-25T10:07:49Z</time>
      </trkpt>
      <trkpt lat="48.3535" lon="2.73566">
        <ele>131</ele>
        <time>2021-01-25T10:10:39Z</time>
      </trkpt>
      <trkpt lat="48.35284" lon="2.73615">
        <ele>129</ele>
        <time>2021-01-25T10:12:17Z</time>
      </trkpt>
      <trkpt lat="48.35292" lon="2.73742">
        <ele>132</ele>
        <time>2021-01-25T10:14:10Z</time>
      </trkpt>
      <trkpt lat="48.35354" lon="2.73806">
        <ele>131</ele>
        <time>2021-01-25T10:15:50Z</time>
      </trkpt>
      <trkpt lat="48.35457" lon="2.73794">
        <ele>131</ele>
        <time>2021-01-25T10:18:08Z</time>
      </trkpt>
      <trkpt lat="48.3554" lon="2.73782">
        <ele>136</ele>
        <time>2021-01-25T10:19:59Z</time>
      </trkpt>
      <trkpt lat="48.35651" lon="2.73861">
        <ele>133</ele>
        <time>2021-01-25T10:22:43Z</time>
      </trkpt>
      <trkpt lat="48.35873" lon="2.73947">
        <ele>95</ele>
        <time>2021-01-25T10:27:49Z</time>
      </trkpt>
      <trkpt lat="48.36048" lon="2.74039">
        <ele>106</ele>
        <time>2021-01-25T10:31:57Z</time>
      </trkpt>
      <trkpt lat="48.3608" lon="2.7413">
        <ele>112</ele>
        <time>2021-01-25T10:33:28Z</time>
      </trkpt>
      <trkpt lat="48.3606" lon="2.74163">
        <ele>117</ele>
        <time>2021-01-25T10:34:07Z</time>
      </trkpt>
      <trkpt lat="48.35955" lon="2.74181">
        <ele>119</ele>
        <time>2021-01-25T10:36:28Z</time>
      </trkpt>
      <trkpt lat="48.35961" lon="2.74233">
        <ele>123</ele>
        <time>2021-01-25T10:37:15Z</time>
      </trkpt>
      <trkpt lat="48.36032" lon="2.74205">
        <ele>125</ele>
        <time>2021-01-25T10:38:53Z</time>
      </trkpt>
      <trkpt lat="48.36036" lon="2.74354">
        <ele>132</ele>
        <time>2021-01-25T10:41:05Z</time>
      </trkpt>
      <trkpt lat="48.36" lon="2.74618">
        <ele>132</ele>
        <time>2021-01-25T10:45:04Z</time>
      </trkpt>
      <trkpt lat="48.36092" lon="2.74827">
        <ele>132</ele>
        <time>2021-01-25T10:48:47Z</time>
      </trkpt>
      <trkpt lat="48.36149" lon="2.74718">
        <ele>133</ele>
        <time>2021-01-25T10:50:50Z</time>
      </trkpt>
      <trkpt lat="48.36214" lon="2.74761">
        <ele>127</ele>
        <time>2021-01-25T10:52:24Z</time>
      </trkpt>
      <trkpt lat="48.36204" lon="2.74671">
        <ele>124</ele>
        <time>2021-01-25T10:53:45Z</time>
      </trkpt>
      <trkpt lat="48.36315" lon="2.74534">
        <ele>107</ele>
        <time>2021-01-25T10:56:57Z</time>
      </trkpt>
      <trkpt lat="48.36617" lon="2.74472">
        <ele>104</ele>
        <time>2021-01-25T11:03:44Z</time>
      </trkpt>
      <trkpt lat="48.36747" lon="2.74457">
        <ele>113</ele>
        <time>2021-01-25T11:06:38Z</time>
      </trkpt>
      <trkpt lat="48.36869" lon="2.74446">
        <ele>130</ele>
        <time>2021-01-25T11:09:21Z</time>
      </trkpt>
      <trkpt lat="48.36977" lon="2.74457">
        <ele>131</ele>
        <time>2021-01-25T11:11:45Z</time>
      </trkpt>
      <trkpt lat="48.37121" lon="2.74446">
        <ele>110</ele>
        <time>2021-01-25T11:14:58Z</time>
      </trkpt>
      <trkpt lat="48.37209" lon="2.74464">
        <ele>100</ele>
        <time>2021-01-25T11:16:56Z</time>
      </trkpt>
      <trkpt lat="48.37171" lon="2.74565">
        <ele>105</ele>
        <time>2021-01-25T11:18:39Z</time>
      </trkpt>
      <trkpt lat="48.372" lon="2.74641">
        <ele>99</ele>
        <time>2021-01-25T11:19:57Z</time>
      </trkpt>
      <trkpt lat="48.37113" lon="2.74767">
        <ele>114</ele>
        <time>2021-01-25T11:22:38Z</time>
      </trkpt>
      <trkpt lat="48.37075" lon="2.74847">
        <ele>120</ele>
        <time>2021-01-25T11:24:05Z</time>
      </trkpt>
      <trkpt lat="48.36973" lon="2.74763">
        <ele>132</ele>
        <time>2021-01-25T11:26:40Z</time>
      </trkpt>
      <trkpt lat="48.3695" lon="2.74931">
        <ele>132</ele>
        <time>2021-01-25T11:29:12Z</time>
      </trkpt>
      <trkpt lat="48.36858" lon="2.75258">
        <ele>133</ele>
        <time>2021-01-25T11:34:27Z</time>
      </trkpt>
      <trkpt lat="48.36735" lon="2.75263">
        <ele>135</ele>
        <time>2021-01-25T11:37:11Z</time>
      </trkpt>
      <trkpt lat="48.36545" lon="2.75339">
        <ele>107</ele>
        <time>2021-01-25T11:41:34Z</time>
      </trkpt>
      <trkpt lat="48.36488" lon="2.75319">
        <ele>103</ele>
        <time>2021-01-25T11:42:52Z</time>
      </trkpt>
      <trkpt lat="48.36434" lon="2.75809">
        <ele>96</ele>
        <time>2021-01-25T11:50:12Z</time>
      </trkpt>
      <trkpt lat="48.36427" lon="2.75921">
        <ele>96</ele>
        <time>2021-01-25T11:51:52Z</time>
      </trkpt>
      <trkpt lat="48.36529" lon="2.76146">
        <ele>96</ele>
        <time>2021-01-25T11:55:53Z</time>
      </trkpt>
      <trkpt lat="48.36477" lon="2.76661">
        <ele>94</ele>
        <time>2021-01-25T12:03:35Z</time>
      </trkpt>
      <trkpt lat="48.36799" lon="2.76697">
        <ele>97</ele>
        <time>2021-01-25T12:10:46Z</time>
      </trkpt>
      <trkpt lat="48.36864" lon="2.76946">
        <ele>101</ele>
        <time>2021-01-25T12:14:43Z</time>
      </trkpt>
      <trkpt lat="48.36944" lon="2.77043">
        <ele>105</ele>
        <time>2021-01-25T12:17:00Z</time>
      </trkpt>
      <trkpt lat="48.37062" lon="2.77547">
        <ele>101</ele>
        <time>2021-01-25T12:24:54Z</time>
      </trkpt>
      <trkpt lat="48.37054" lon="2.77638">
        <ele>99</ele>
        <time>2021-01-25T12:26:15Z</time>
      </trkpt>
      <trkpt lat="48.37074" lon="2.77699">
        <ele>101</ele>
        <time>2021-01-25T12:27:16Z</time>
      </trkpt>
      <trkpt lat="48.37074" lon="2.77827">
        <ele>100</ele>
        <time>2021-01-25T12:29:09Z</time>
      </trkpt>
      <trkpt lat="48.37167" lon="2.78191">
        <ele>104</ele>
        <time>2021-01-25T12:34:55Z</time>
      </trkpt>
      <trkpt lat="48.37203" lon="2.78294">
        <ele>102</ele>
        <time>2021-01-25T12:36:38Z</time>
      </trkpt>
      <trkpt lat="48.37271" lon="2.78397">
        <ele>101</ele>
        <time>2021-01-25T12:38:47Z</time>
      </trkpt>
      <trkpt lat="48.37279" lon="2.78531">
        <ele>100</ele>
        <time>2021-01-25T12:40:46Z</time>
      </trkpt>
      <trkpt lat="48.37296" lon="2.78634">
        <ele>100</ele>
        <time>2021-01-25T12:42:20Z</time>
      </trkpt>
      <trkpt lat="48.3738" lon="2.7884">
        <ele>93</ele>
        <time>2021-01-25T12:45:54Z</time>
      </trkpt>
      <trkpt lat="48.37529" lon="2.79087">
        <ele>89</ele>
        <time>2021-01-25T12:50:50Z</time>
      </trkpt>
      <trkpt lat="48.37509" lon="2.79153">
        <ele>90</ele>
        <time>2021-01-25T12:51:54Z</time>
      </trkpt>
      <trkpt lat="48.37601" lon="2.79299">
        <ele>89</ele>
        <time>2021-01-25T12:54:53Z</time>
      </trkpt>
      <trkpt lat="48.3771" lon="2.79402">
        <ele>85</ele>
        <time>2021-01-25T12:57:45Z</time>
      </trkpt>
      <trkpt lat="48.37706" lon="2.79481">
        <ele>86</ele>
        <time>2021-01-25T12:58:55Z</time>
      </trkpt>
      <trkpt lat="48.37924" lon="2.79718">
        <ele>71</ele>
        <time>2021-01-25T13:04:54Z</time>
      </trkpt>
      <trkpt lat="48.37871" lon="2.79918">
        <ele>67</ele>
        <time>2021-01-25T13:08:04Z</time>
      </trkpt>
    </trkseg>
  </trk>
</gpx>